首页
METAR-TAF:

METAR-TAF

机场 :

海地角, 海地

纬度: 19-43-59N, 经度: 72-11-41W, 海拔: 3米

当前天气观测

该预报发布于5小时和47分钟前的14:00 UTC
风速8节,风向东转东北
温度 29°C
湿度 62%
气压 1017 hPa
能見度: 9000
少量云层高于2500英尺, 塔状积云.

METAR: MTCH 251400Z 06008KT 9000 FEW025TCU 29/21 Q1016 A3002

时间: 14:47 (19:47 UTC)

预报

该预报发布于8小时和47分钟前的11:00 UTC
预报有效从25日的 12点(UTC)到 26日的 12点(UTC)
风速2节,风向多变
能見度: 9000
少量云层高于2500英尺, 积雨云.
成为
从 25日的 14点(UTC)到 25日的 16点(UTC)
风速10节,风向东北
从 25日的 1700点(UTC)
风速14节,风向北转东北,有时为24节阵风
能见度10公里或以上
少量云层高于2800英尺
短暂存在
从 26日的 02点(UTC)到 26日的 06点(UTC)
风速2节,风向多变

TAF: MTCH 251100Z 2512/2612 VRB02KT 9000 FEW025CB BECMG 2514/2516 05010KT FM251700 02014G24KT 9999 FEW028 TEMPO 2602/2606 VRB02KT

超过4000个机场的气象观测和天气预报(METAR&TAF报告)。

可查询的气象台以黄色和红色小点在地图上表示。

将鼠标移到小点上方,可查看气象台名称。

然后点击查看天气观测和预报。

如需切换地图:点击带黑十字的绿色按钮放大地图;点击带横线的绿色按钮缩小地图;或者点击绿色箭头查看邻近地区的地图。


METAR-TAF: